sensor_id;sensor_type;location;lat;lon;timestamp;P1;durP1;ratioP1;P2;durP2;ratioP2
73599;SDS011;61877;48.246;9.220;2023-03-01T00:00:45;28.58;;;13.18;;
73599;SDS011;61877;48.246;9.220;2023-03-01T00:03:12;25.50;;;13.10;;
73599;SDS011;61877;48.246;9.220;2023-03-01T00:05:43;28.48;;;13.45;;
73599;SDS011;61877;48.246;9.220;2023-03-01T00:08:08;31.43;;;14.83;;
73599;SDS011;61877;48.246;9.220;2023-03-01T00:10:34;35.10;;;15.83;;
73599;SDS011;61877;48.246;9.220;2023-03-01T00:12:59;31.17;;;15.03;;
73599;SDS011;61877;48.246;9.220;2023-03-01T00:15:25;33.40;;;15.17;;
73599;SDS011;61877;48.246;9.220;2023-03-01T00:17:50;32.50;;;14.93;;
73599;SDS011;61877;48.246;9.220;2023-03-01T00:20:17;28.77;;;13.53;;
73599;SDS011;61877;48.246;9.220;2023-03-01T00:22:42;36.53;;;15.57;;
73599;SDS011;61877;48.246;9.220;2023-03-01T00:25:08;35.53;;;16.20;;
73599;SDS011;61877;48.246;9.220;2023-03-01T00:27:33;38.47;;;17.60;;
73599;SDS011;61877;48.246;9.220;2023-03-01T00:29:59;34.37;;;16.30;;
73599;SDS011;61877;48.246;9.220;2023-03-01T00:32:24;34.27;;;15.13;;
73599;SDS011;61877;48.246;9.220;2023-03-01T00:34:49;34.33;;;14.23;;
73599;SDS011;61877;48.246;9.220;2023-03-01T00:37:16;32.90;;;14.03;;
73599;SDS011;61877;48.246;9.220;2023-03-01T00:39:42;34.15;;;14.40;;
73599;SDS011;61877;48.246;9.220;2023-03-01T00:42:07;27.67;;;12.67;;
73599;SDS011;61877;48.246;9.220;2023-03-01T00:44:32;28.10;;;12.93;;
73599;SDS011;61877;48.246;9.220;2023-03-01T00:46:58;29.00;;;13.18;;
73599;SDS011;61877;48.246;9.220;2023-03-01T00:49:23;27.63;;;12.37;;
73599;SDS011;61877;48.246;9.220;2023-03-01T00:51:49;28.90;;;12.20;;
73599;SDS011;61877;48.246;9.220;2023-03-01T00:54:16;26.50;;;12.13;;
73599;SDS011;61877;48.246;9.220;2023-03-01T00:56:41;25.17;;;12.48;;
73599;SDS011;61877;48.246;9.220;2023-03-01T00:59:06;27.10;;;11.80;;
73599;SDS011;61877;48.246;9.220;2023-03-01T01:01:32;24.13;;;12.13;;
73599;SDS011;61877;48.246;9.220;2023-03-01T01:03:58;26.15;;;12.63;;
73599;SDS011;61877;48.246;9.220;2023-03-01T01:06:25;24.20;;;11.97;;
73599;SDS011;61877;48.246;9.220;2023-03-01T01:08:52;24.35;;;11.38;;
73599;SDS011;61877;48.246;9.220;2023-03-01T01:11:19;25.13;;;12.45;;
73599;SDS011;61877;48.246;9.220;2023-03-01T01:13:46;26.13;;;12.52;;
73599;SDS011;61877;48.246;9.220;2023-03-01T01:16:12;26.20;;;12.43;;
73599;SDS011;61877;48.246;9.220;2023-03-01T01:18:39;28.17;;;12.87;;
73599;SDS011;61877;48.246;9.220;2023-03-01T01:21:05;28.00;;;13.60;;
73599;SDS011;61877;48.246;9.220;2023-03-01T01:23:31;27.83;;;13.13;;
73599;SDS011;61877;48.246;9.220;2023-03-01T01:25:57;25.65;;;11.75;;
73599;SDS011;61877;48.246;9.220;2023-03-01T01:28:28;26.63;;;12.98;;
73599;SDS011;61877;48.246;9.220;2023-03-01T01:30:54;28.23;;;13.82;;
73599;SDS011;61877;48.246;9.220;2023-03-01T01:33:19;28.70;;;13.50;;
73599;SDS011;61877;48.246;9.220;2023-03-01T01:35:44;27.73;;;13.50;;
73599;SDS011;61877;48.246;9.220;2023-03-01T01:38:10;26.70;;;13.27;;
73599;SDS011;61877;48.246;9.220;2023-03-01T01:40:42;26.45;;;13.30;;
73599;SDS011;61877;48.246;9.220;2023-03-01T01:43:09;27.30;;;13.13;;
73599;SDS011;61877;48.246;9.220;2023-03-01T01:45:43;27.27;;;13.23;;
73599;SDS011;61877;48.246;9.220;2023-03-01T01:48:10;27.25;;;13.05;;
73599;SDS011;61877;48.246;9.220;2023-03-01T01:50:39;28.17;;;13.20;;
73599;SDS011;61877;48.246;9.220;2023-03-01T01:53:06;27.42;;;13.63;;
73599;SDS011;61877;48.246;9.220;2023-03-01T01:55:36;26.40;;;12.70;;
73599;SDS011;61877;48.246;9.220;2023-03-01T01:58:05;28.80;;;13.30;;
73599;SDS011;61877;48.246;9.220;2023-03-01T02:00:35;26.05;;;12.88;;
73599;SDS011;61877;48.246;9.220;2023-03-01T02:03:04;32.15;;;13.25;;
73599;SDS011;61877;48.246;9.220;2023-03-01T02:05:36;27.23;;;13.07;;
73599;SDS011;61877;48.246;9.220;2023-03-01T02:08:06;27.53;;;12.67;;
73599;SDS011;61877;48.246;9.220;2023-03-01T02:10:35;26.50;;;12.27;;
73599;SDS011;61877;48.246;9.220;2023-03-01T02:13:01;29.20;;;13.20;;
73599;SDS011;61877;48.246;9.220;2023-03-01T02:15:29;25.92;;;12.00;;
73599;SDS011;61877;48.246;9.220;2023-03-01T02:17:57;26.75;;;12.60;;
73599;SDS011;61877;48.246;9.220;2023-03-01T02:20:26;24.27;;;11.80;;
73599;SDS011;61877;48.246;9.220;2023-03-01T02:22:58;27.67;;;12.50;;
73599;SDS011;61877;48.246;9.220;2023-03-01T02:25:27;25.42;;;12.68;;
73599;SDS011;61877;48.246;9.220;2023-03-01T02:28:00;26.97;;;12.07;;
73599;SDS011;61877;48.246;9.220;2023-03-01T02:30:34;28.48;;;13.30;;
73599;SDS011;61877;48.246;9.220;2023-03-01T02:33:00;25.83;;;12.40;;
73599;SDS011;61877;48.246;9.220;2023-03-01T02:35:28;28.38;;;12.90;;
73599;SDS011;61877;48.246;9.220;2023-03-01T02:37:55;26.23;;;12.43;;
73599;SDS011;61877;48.246;9.220;2023-03-01T02:40:21;27.43;;;12.90;;
73599;SDS011;61877;48.246;9.220;2023-03-01T02:42:48;27.93;;;12.70;;
73599;SDS011;61877;48.246;9.220;2023-03-01T02:45:17;27.02;;;12.75;;
73599;SDS011;61877;48.246;9.220;2023-03-01T02:47:44;27.47;;;12.43;;
73599;SDS011;61877;48.246;9.220;2023-03-01T02:50:12;29.50;;;14.00;;
73599;SDS011;61877;48.246;9.220;2023-03-01T02:52:47;28.95;;;13.68;;
73599;SDS011;61877;48.246;9.220;2023-03-01T02:55:21;28.90;;;12.70;;
73599;SDS011;61877;48.246;9.220;2023-03-01T02:57:46;28.27;;;12.93;;
73599;SDS011;61877;48.246;9.220;2023-03-01T03:00:14;30.85;;;14.05;;
73599;SDS011;61877;48.246;9.220;2023-03-01T03:02:41;27.70;;;12.45;;
73599;SDS011;61877;48.246;9.220;2023-03-01T03:05:09;26.37;;;12.30;;
73599;SDS011;61877;48.246;9.220;2023-03-01T03:07:37;26.83;;;12.75;;
73599;SDS011;61877;48.246;9.220;2023-03-01T03:10:04;27.23;;;12.90;;
73599;SDS011;61877;48.246;9.220;2023-03-01T03:12:32;28.77;;;12.53;;
73599;SDS011;61877;48.246;9.220;2023-03-01T03:14:58;26.50;;;12.32;;
73599;SDS011;61877;48.246;9.220;2023-03-01T03:17:23;29.93;;;13.10;;
73599;SDS011;61877;48.246;9.220;2023-03-01T03:19:49;27.90;;;13.17;;
73599;SDS011;61877;48.246;9.220;2023-03-01T03:22:15;29.80;;;14.18;;
73599;SDS011;61877;48.246;9.220;2023-03-01T03:24:41;27.30;;;13.10;;
73599;SDS011;61877;48.246;9.220;2023-03-01T03:27:06;26.15;;;12.27;;
73599;SDS011;61877;48.246;9.220;2023-03-01T03:29:32;30.07;;;13.30;;
73599;SDS011;61877;48.246;9.220;2023-03-01T03:31:58;27.88;;;12.82;;
73599;SDS011;61877;48.246;9.220;2023-03-01T03:34:23;28.97;;;13.50;;
73599;SDS011;61877;48.246;9.220;2023-03-01T03:36:52;27.97;;;12.53;;
73599;SDS011;61877;48.246;9.220;2023-03-01T03:39:19;25.98;;;12.88;;
73599;SDS011;61877;48.246;9.220;2023-03-01T03:41:45;28.73;;;13.02;;
73599;SDS011;61877;48.246;9.220;2023-03-01T03:44:10;30.77;;;13.80;;
73599;SDS011;61877;48.246;9.220;2023-03-01T03:46:35;26.77;;;13.03;;
73599;SDS011;61877;48.246;9.220;2023-03-01T03:49:01;28.67;;;13.17;;
73599;SDS011;61877;48.246;9.220;2023-03-01T03:51:26;26.80;;;13.33;;
73599;SDS011;61877;48.246;9.220;2023-03-01T03:53:52;27.60;;;12.47;;
73599;SDS011;61877;48.246;9.220;2023-03-01T03:56:18;29.37;;;13.77;;
73599;SDS011;61877;48.246;9.220;2023-03-01T03:58:44;28.00;;;12.90;;
73599;SDS011;61877;48.246;9.220;2023-03-01T04:01:09;29.07;;;12.80;;
73599;SDS011;61877;48.246;9.220;2023-03-01T04:03:34;30.07;;;13.27;;
73599;SDS011;61877;48.246;9.220;2023-03-01T04:06:00;27.80;;;13.17;;
73599;SDS011;61877;48.246;9.220;2023-03-01T04:08:26;26.77;;;12.50;;
73599;SDS011;61877;48.246;9.220;2023-03-01T04:10:55;28.67;;;12.63;;
73599;SDS011;61877;48.246;9.220;2023-03-01T04:13:24;28.30;;;13.27;;
73599;SDS011;61877;48.246;9.220;2023-03-01T04:15:50;28.30;;;12.52;;
73599;SDS011;61877;48.246;9.220;2023-03-01T04:18:16;27.75;;;12.95;;
73599;SDS011;61877;48.246;9.220;2023-03-01T04:20:43;27.87;;;13.07;;
73599;SDS011;61877;48.246;9.220;2023-03-01T04:23:09;29.52;;;13.02;;
73599;SDS011;61877;48.246;9.220;2023-03-01T04:25:38;27.65;;;12.02;;
73599;SDS011;61877;48.246;9.220;2023-03-01T04:28:04;28.85;;;12.57;;
73599;SDS011;61877;48.246;9.220;2023-03-01T04:30:30;26.80;;;12.00;;
73599;SDS011;61877;48.246;9.220;2023-03-01T04:32:56;28.58;;;13.05;;
73599;SDS011;61877;48.246;9.220;2023-03-01T04:35:21;28.50;;;12.30;;
73599;SDS011;61877;48.246;9.220;2023-03-01T04:37:47;28.23;;;13.07;;
73599;SDS011;61877;48.246;9.220;2023-03-01T04:40:12;26.77;;;12.60;;
73599;SDS011;61877;48.246;9.220;2023-03-01T04:42:38;26.40;;;12.05;;
73599;SDS011;61877;48.246;9.220;2023-03-01T04:45:04;26.23;;;12.07;;
73599;SDS011;61877;48.246;9.220;2023-03-01T04:47:32;26.23;;;12.38;;
73599;SDS011;61877;48.246;9.220;2023-03-01T04:49:57;26.25;;;12.77;;
73599;SDS011;61877;48.246;9.220;2023-03-01T04:52:22;26.93;;;12.60;;
73599;SDS011;61877;48.246;9.220;2023-03-01T04:54:48;26.47;;;12.50;;
73599;SDS011;61877;48.246;9.220;2023-03-01T04:57:13;25.97;;;12.80;;
73599;SDS011;61877;48.246;9.220;2023-03-01T04:59:38;27.20;;;13.13;;
73599;SDS011;61877;48.246;9.220;2023-03-01T05:02:04;27.47;;;12.87;;
73599;SDS011;61877;48.246;9.220;2023-03-01T05:04:30;26.13;;;12.37;;
73599;SDS011;61877;48.246;9.220;2023-03-01T05:06:56;28.13;;;12.98;;
73599;SDS011;61877;48.246;9.220;2023-03-01T05:09:21;28.37;;;12.73;;
73599;SDS011;61877;48.246;9.220;2023-03-01T05:11:46;29.27;;;13.23;;
73599;SDS011;61877;48.246;9.220;2023-03-01T05:14:12;26.10;;;12.87;;
73599;SDS011;61877;48.246;9.220;2023-03-01T05:16:38;29.23;;;12.83;;
73599;SDS011;61877;48.246;9.220;2023-03-01T05:19:03;26.43;;;13.13;;
73599;SDS011;61877;48.246;9.220;2023-03-01T05:21:30;26.67;;;12.43;;
73599;SDS011;61877;48.246;9.220;2023-03-01T05:23:55;27.88;;;12.93;;
73599;SDS011;61877;48.246;9.220;2023-03-01T05:26:21;25.53;;;12.57;;
73599;SDS011;61877;48.246;9.220;2023-03-01T05:28:46;26.67;;;12.60;;
73599;SDS011;61877;48.246;9.220;2023-03-01T05:31:12;28.85;;;12.80;;
73599;SDS011;61877;48.246;9.220;2023-03-01T05:33:38;26.63;;;12.87;;
73599;SDS011;61877;48.246;9.220;2023-03-01T05:36:04;26.60;;;12.88;;
73599;SDS011;61877;48.246;9.220;2023-03-01T05:38:31;28.52;;;13.02;;
73599;SDS011;61877;48.246;9.220;2023-03-01T05:40:57;30.60;;;13.27;;
73599;SDS011;61877;48.246;9.220;2023-03-01T05:43:22;29.67;;;13.30;;
73599;SDS011;61877;48.246;9.220;2023-03-01T05:45:48;29.57;;;13.00;;
73599;SDS011;61877;48.246;9.220;2023-03-01T05:48:13;27.23;;;13.13;;
73599;SDS011;61877;48.246;9.220;2023-03-01T05:50:39;28.13;;;12.93;;
73599;SDS011;61877;48.246;9.220;2023-03-01T05:53:07;28.63;;;13.63;;
73599;SDS011;61877;48.246;9.220;2023-03-01T05:55:36;30.23;;;13.10;;
73599;SDS011;61877;48.246;9.220;2023-03-01T05:58:03;28.42;;;12.80;;
73599;SDS011;61877;48.246;9.220;2023-03-01T06:00:30;26.55;;;13.10;;
73599;SDS011;61877;48.246;9.220;2023-03-01T06:02:56;27.07;;;12.60;;
73599;SDS011;61877;48.246;9.220;2023-03-01T06:05:23;30.70;;;13.75;;
73599;SDS011;61877;48.246;9.220;2023-03-01T06:07:50;28.88;;;12.98;;
73599;SDS011;61877;48.246;9.220;2023-03-01T06:10:15;28.30;;;12.60;;
73599;SDS011;61877;48.246;9.220;2023-03-01T06:12:42;27.40;;;13.10;;
73599;SDS011;61877;48.246;9.220;2023-03-01T06:15:09;28.33;;;12.93;;
73599;SDS011;61877;48.246;9.220;2023-03-01T06:17:35;27.77;;;13.10;;
73599;SDS011;61877;48.246;9.220;2023-03-01T06:20:02;27.88;;;13.02;;
73599;SDS011;61877;48.246;9.220;2023-03-01T06:22:28;27.55;;;13.27;;
73599;SDS011;61877;48.246;9.220;2023-03-01T06:24:54;26.20;;;12.97;;
73599;SDS011;61877;48.246;9.220;2023-03-01T06:27:19;26.37;;;13.07;;
73599;SDS011;61877;48.246;9.220;2023-03-01T06:29:46;27.40;;;12.63;;
73599;SDS011;61877;48.246;9.220;2023-03-01T06:32:11;28.57;;;12.83;;
73599;SDS011;61877;48.246;9.220;2023-03-01T06:34:36;27.67;;;12.73;;
73599;SDS011;61877;48.246;9.220;2023-03-01T06:37:02;27.10;;;12.60;;
73599;SDS011;61877;48.246;9.220;2023-03-01T06:39:27;28.07;;;13.23;;
73599;SDS011;61877;48.246;9.220;2023-03-01T06:41:53;27.00;;;12.67;;
73599;SDS011;61877;48.246;9.220;2023-03-01T06:44:18;29.67;;;13.43;;
73599;SDS011;61877;48.246;9.220;2023-03-01T06:46:45;27.42;;;12.32;;
73599;SDS011;61877;48.246;9.220;2023-03-01T06:49:10;27.47;;;12.70;;
73599;SDS011;61877;48.246;9.220;2023-03-01T06:51:35;25.98;;;12.10;;
73599;SDS011;61877;48.246;9.220;2023-03-01T06:54:01;26.97;;;12.53;;
73599;SDS011;61877;48.246;9.220;2023-03-01T06:56:27;27.23;;;12.05;;
73599;SDS011;61877;48.246;9.220;2023-03-01T06:58:52;27.77;;;13.00;;
73599;SDS011;61877;48.246;9.220;2023-03-01T07:01:17;29.70;;;11.70;;
73599;SDS011;61877;48.246;9.220;2023-03-01T07:03:44;26.33;;;12.43;;
73599;SDS011;61877;48.246;9.220;2023-03-01T07:06:09;28.25;;;13.05;;
73599;SDS011;61877;48.246;9.220;2023-03-01T07:08:35;26.47;;;13.07;;
73599;SDS011;61877;48.246;9.220;2023-03-01T07:11:00;28.17;;;12.97;;
73599;SDS011;61877;48.246;9.220;2023-03-01T07:13:26;27.95;;;12.60;;
73599;SDS011;61877;48.246;9.220;2023-03-01T07:15:51;29.97;;;12.67;;
73599;SDS011;61877;48.246;9.220;2023-03-01T07:18:16;27.70;;;12.60;;
73599;SDS011;61877;48.246;9.220;2023-03-01T07:20:43;28.80;;;12.87;;
73599;SDS011;61877;48.246;9.220;2023-03-01T07:23:09;29.38;;;12.55;;
73599;SDS011;61877;48.246;9.220;2023-03-01T07:25:34;27.67;;;12.27;;
73599;SDS011;61877;48.246;9.220;2023-03-01T07:27:59;29.13;;;12.40;;
73599;SDS011;61877;48.246;9.220;2023-03-01T07:30:25;28.17;;;12.73;;
73599;SDS011;61877;48.246;9.220;2023-03-01T07:32:51;31.87;;;13.57;;
73599;SDS011;61877;48.246;9.220;2023-03-01T07:35:16;29.10;;;13.23;;
73599;SDS011;61877;48.246;9.220;2023-03-01T07:37:43;29.20;;;13.30;;
73599;SDS011;61877;48.246;9.220;2023-03-01T07:40:09;28.60;;;13.40;;
73599;SDS011;61877;48.246;9.220;2023-03-01T07:42:35;28.23;;;12.93;;
73599;SDS011;61877;48.246;9.220;2023-03-01T07:45:01;27.80;;;13.10;;
73599;SDS011;61877;48.246;9.220;2023-03-01T07:47:26;29.27;;;13.07;;
73599;SDS011;61877;48.246;9.220;2023-03-01T07:49:52;27.77;;;13.07;;
73599;SDS011;61877;48.246;9.220;2023-03-01T07:52:17;27.33;;;12.97;;
73599;SDS011;61877;48.246;9.220;2023-03-01T07:54:44;29.10;;;13.83;;
73599;SDS011;61877;48.246;9.220;2023-03-01T07:57:09;28.05;;;13.45;;
73599;SDS011;61877;48.246;9.220;2023-03-01T07:59:35;27.97;;;12.97;;
73599;SDS011;61877;48.246;9.220;2023-03-01T08:02:04;29.42;;;13.07;;
73599;SDS011;61877;48.246;9.220;2023-03-01T08:04:31;26.37;;;12.47;;
73599;SDS011;61877;48.246;9.220;2023-03-01T08:06:57;28.77;;;12.80;;
73599;SDS011;61877;48.246;9.220;2023-03-01T08:12:28;25.90;;;12.85;;
73599;SDS011;61877;48.246;9.220;2023-03-01T08:18:04;33.00;;;13.88;;
73599;SDS011;61877;48.246;9.220;2023-03-01T08:20:30;29.63;;;13.40;;
73599;SDS011;61877;48.246;9.220;2023-03-01T08:28:47;27.77;;;13.50;;
73599;SDS011;61877;48.246;9.220;2023-03-01T08:31:15;29.85;;;13.38;;
73599;SDS011;61877;48.246;9.220;2023-03-01T08:37:01;29.35;;;13.82;;
73599;SDS011;61877;48.246;9.220;2023-03-01T08:39:28;28.40;;;13.32;;
73599;SDS011;61877;48.246;9.220;2023-03-01T08:41:53;31.23;;;14.20;;
73599;SDS011;61877;48.246;9.220;2023-03-01T08:50:30;29.13;;;13.40;;
73599;SDS011;61877;48.246;9.220;2023-03-01T09:01:32;28.02;;;12.57;;
73599;SDS011;61877;48.246;9.220;2023-03-01T09:04:22;30.33;;;13.73;;
73599;SDS011;61877;48.246;9.220;2023-03-01T09:19:07;28.60;;;13.45;;
73599;SDS011;61877;48.246;9.220;2023-03-01T09:27:46;28.73;;;13.23;;
73599;SDS011;61877;48.246;9.220;2023-03-01T09:30:13;28.83;;;13.68;;
73599;SDS011;61877;48.246;9.220;2023-03-01T09:32:43;28.35;;;13.35;;
73599;SDS011;61877;48.246;9.220;2023-03-01T09:35:37;30.42;;;13.73;;
73599;SDS011;61877;48.246;9.220;2023-03-01T09:38:20;28.33;;;13.20;;
73599;SDS011;61877;48.246;9.220;2023-03-01T09:40:52;27.58;;;13.13;;
73599;SDS011;61877;48.246;9.220;2023-03-01T09:46:19;32.42;;;12.95;;
73599;SDS011;61877;48.246;9.220;2023-03-01T09:58:11;28.83;;;12.05;;
73599;SDS011;61877;48.246;9.220;2023-03-01T10:01:09;24.58;;;11.60;;
73599;SDS011;61877;48.246;9.220;2023-03-01T10:04:09;26.10;;;11.70;;
73599;SDS011;61877;48.246;9.220;2023-03-01T10:07:15;27.73;;;12.17;;
73599;SDS011;61877;48.246;9.220;2023-03-01T10:10:07;25.30;;;11.82;;
73599;SDS011;61877;48.246;9.220;2023-03-01T10:20:17;26.93;;;12.30;;
73599;SDS011;61877;48.246;9.220;2023-03-01T10:22:48;27.13;;;12.18;;
73599;SDS011;61877;48.246;9.220;2023-03-01T10:25:14;27.08;;;12.52;;
73599;SDS011;61877;48.246;9.220;2023-03-01T10:27:41;26.23;;;12.73;;
73599;SDS011;61877;48.246;9.220;2023-03-01T10:30:17;28.17;;;12.50;;
73599;SDS011;61877;48.246;9.220;2023-03-01T10:32:49;28.50;;;11.85;;
73599;SDS011;61877;48.246;9.220;2023-03-01T10:35:23;24.83;;;11.93;;
73599;SDS011;61877;48.246;9.220;2023-03-01T10:38:01;26.60;;;11.75;;
73599;SDS011;61877;48.246;9.220;2023-03-01T10:40:28;24.48;;;11.73;;
73599;SDS011;61877;48.246;9.220;2023-03-01T10:42:54;26.23;;;11.93;;
73599;SDS011;61877;48.246;9.220;2023-03-01T10:45:27;25.27;;;11.95;;
73599;SDS011;61877;48.246;9.220;2023-03-01T10:48:04;28.15;;;12.25;;
73599;SDS011;61877;48.246;9.220;2023-03-01T10:50:32;27.23;;;11.80;;
73599;SDS011;61877;48.246;9.220;2023-03-01T10:52:58;25.77;;;11.93;;
73599;SDS011;61877;48.246;9.220;2023-03-01T10:55:27;26.77;;;12.27;;
73599;SDS011;61877;48.246;9.220;2023-03-01T11:00:28;26.65;;;11.82;;
73599;SDS011;61877;48.246;9.220;2023-03-01T11:05:40;26.55;;;12.00;;
73599;SDS011;61877;48.246;9.220;2023-03-01T11:08:25;27.58;;;12.82;;
73599;SDS011;61877;48.246;9.220;2023-03-01T11:11:03;29.95;;;12.20;;
73599;SDS011;61877;48.246;9.220;2023-03-01T11:13:30;29.90;;;12.53;;
73599;SDS011;61877;48.246;9.220;2023-03-01T11:15:59;28.48;;;12.80;;
73599;SDS011;61877;48.246;9.220;2023-03-01T11:18:30;28.58;;;13.15;;
73599;SDS011;61877;48.246;9.220;2023-03-01T11:21:22;28.52;;;13.48;;
73599;SDS011;61877;48.246;9.220;2023-03-01T11:23:53;29.97;;;13.43;;
73599;SDS011;61877;48.246;9.220;2023-03-01T11:26:30;31.27;;;12.90;;
73599;SDS011;61877;48.246;9.220;2023-03-01T11:29:00;29.10;;;12.77;;
73599;SDS011;61877;48.246;9.220;2023-03-01T11:31:37;28.20;;;12.63;;
73599;SDS011;61877;48.246;9.220;2023-03-01T11:34:07;28.58;;;12.82;;
73599;SDS011;61877;48.246;9.220;2023-03-01T11:36:51;29.90;;;13.97;;
73599;SDS011;61877;48.246;9.220;2023-03-01T11:39:22;28.17;;;13.07;;
73599;SDS011;61877;48.246;9.220;2023-03-01T11:42:03;29.98;;;13.10;;
73599;SDS011;61877;48.246;9.220;2023-03-01T11:44:37;27.65;;;12.40;;
73599;SDS011;61877;48.246;9.220;2023-03-01T11:47:24;31.02;;;13.38;;
73599;SDS011;61877;48.246;9.220;2023-03-01T11:50:14;28.97;;;12.73;;
73599;SDS011;61877;48.246;9.220;2023-03-01T11:52:50;28.45;;;12.98;;
73599;SDS011;61877;48.246;9.220;2023-03-01T11:55:30;29.73;;;13.27;;
73599;SDS011;61877;48.246;9.220;2023-03-01T11:58:38;28.02;;;12.98;;
73599;SDS011;61877;48.246;9.220;2023-03-01T12:01:17;27.83;;;13.55;;
73599;SDS011;61877;48.246;9.220;2023-03-01T12:04:08;28.27;;;13.53;;
73599;SDS011;61877;48.246;9.220;2023-03-01T12:06:57;30.20;;;13.27;;
73599;SDS011;61877;48.246;9.220;2023-03-01T12:15:30;29.17;;;13.18;;
73599;SDS011;61877;48.246;9.220;2023-03-01T12:18:16;28.40;;;13.17;;
73599;SDS011;61877;48.246;9.220;2023-03-01T12:21:03;26.88;;;12.90;;
73599;SDS011;61877;48.246;9.220;2023-03-01T12:23:50;29.80;;;12.35;;
73599;SDS011;61877;48.246;9.220;2023-03-01T12:26:34;27.90;;;12.55;;
73599;SDS011;61877;48.246;9.220;2023-03-01T12:29:20;26.98;;;13.40;;
73599;SDS011;61877;48.246;9.220;2023-03-01T12:32:01;25.60;;;12.63;;
73599;SDS011;61877;48.246;9.220;2023-03-01T12:38:01;27.45;;;12.70;;
73599;SDS011;61877;48.246;9.220;2023-03-01T12:40:55;23.13;;;12.43;;
73599;SDS011;61877;48.246;9.220;2023-03-01T12:43:47;24.30;;;12.57;;
73599;SDS011;61877;48.246;9.220;2023-03-01T12:46:49;23.30;;;12.00;;
73599;SDS011;61877;48.246;9.220;2023-03-01T12:49:34;24.38;;;12.82;;
73599;SDS011;61877;48.246;9.220;2023-03-01T12:52:09;22.80;;;12.48;;
73599;SDS011;61877;48.246;9.220;2023-03-01T12:54:40;26.00;;;13.57;;
73599;SDS011;61877;48.246;9.220;2023-03-01T12:57:11;25.80;;;13.05;;
73599;SDS011;61877;48.246;9.220;2023-03-01T12:59:41;25.20;;;13.10;;
73599;SDS011;61877;48.246;9.220;2023-03-01T13:02:18;25.17;;;13.30;;
73599;SDS011;61877;48.246;9.220;2023-03-01T13:07:53;24.92;;;13.20;;
73599;SDS011;61877;48.246;9.220;2023-03-01T13:10:39;25.00;;;12.77;;
73599;SDS011;61877;48.246;9.220;2023-03-01T13:13:13;23.83;;;13.03;;
73599;SDS011;61877;48.246;9.220;2023-03-01T13:15:44;25.85;;;13.68;;
73599;SDS011;61877;48.246;9.220;2023-03-01T13:18:31;21.63;;;12.35;;
73599;SDS011;61877;48.246;9.220;2023-03-01T13:21:00;23.42;;;13.05;;
73599;SDS011;61877;48.246;9.220;2023-03-01T13:23:30;22.52;;;13.00;;
73599;SDS011;61877;48.246;9.220;2023-03-01T13:26:08;22.90;;;13.73;;
73599;SDS011;61877;48.246;9.220;2023-03-01T13:37:26;22.85;;;13.70;;
73599;SDS011;61877;48.246;9.220;2023-03-01T13:39:54;25.40;;;14.80;;
73599;SDS011;61877;48.246;9.220;2023-03-01T13:42:32;23.67;;;13.43;;
73599;SDS011;61877;48.246;9.220;2023-03-01T13:45:26;21.42;;;13.52;;
73599;SDS011;61877;48.246;9.220;2023-03-01T13:48:08;23.83;;;14.68;;
73599;SDS011;61877;48.246;9.220;2023-03-01T13:50:45;21.63;;;14.00;;
73599;SDS011;61877;48.246;9.220;2023-03-01T13:53:15;21.90;;;14.20;;
73599;SDS011;61877;48.246;9.220;2023-03-01T13:55:45;21.85;;;14.23;;
73599;SDS011;61877;48.246;9.220;2023-03-01T13:58:19;23.95;;;14.75;;
73599;SDS011;61877;48.246;9.220;2023-03-01T14:00:54;22.35;;;13.93;;
73599;SDS011;61877;48.246;9.220;2023-03-01T14:03:22;23.40;;;14.07;;
73599;SDS011;61877;48.246;9.220;2023-03-01T14:06:01;21.13;;;13.50;;
73599;SDS011;61877;48.246;9.220;2023-03-01T14:08:29;23.13;;;14.13;;
73599;SDS011;61877;48.246;9.220;2023-03-01T14:11:04;22.88;;;13.52;;
73599;SDS011;61877;48.246;9.220;2023-03-01T14:14:08;22.55;;;14.07;;
73599;SDS011;61877;48.246;9.220;2023-03-01T14:16:52;22.38;;;13.35;;
73599;SDS011;61877;48.246;9.220;2023-03-01T14:19:26;21.03;;;12.13;;
73599;SDS011;61877;48.246;9.220;2023-03-01T14:22:00;23.02;;;13.70;;
73599;SDS011;61877;48.246;9.220;2023-03-01T14:24:39;22.40;;;13.20;;
73599;SDS011;61877;48.246;9.220;2023-03-01T14:27:11;22.38;;;13.70;;
73599;SDS011;61877;48.246;9.220;2023-03-01T14:29:39;23.55;;;13.70;;
73599;SDS011;61877;48.246;9.220;2023-03-01T14:32:11;23.97;;;13.40;;
73599;SDS011;61877;48.246;9.220;2023-03-01T14:34:46;24.30;;;13.15;;
73599;SDS011;61877;48.246;9.220;2023-03-01T14:37:20;23.42;;;13.40;;
73599;SDS011;61877;48.246;9.220;2023-03-01T14:39:47;23.08;;;12.68;;
73599;SDS011;61877;48.246;9.220;2023-03-01T14:42:22;24.65;;;12.85;;
73599;SDS011;61877;48.246;9.220;2023-03-01T14:44:50;23.03;;;12.80;;
73599;SDS011;61877;48.246;9.220;2023-03-01T14:47:25;24.48;;;13.30;;
73599;SDS011;61877;48.246;9.220;2023-03-01T14:49:57;26.05;;;13.27;;
73599;SDS011;61877;48.246;9.220;2023-03-01T14:52:47;23.85;;;12.82;;
73599;SDS011;61877;48.246;9.220;2023-03-01T14:55:16;23.35;;;13.45;;
73599;SDS011;61877;48.246;9.220;2023-03-01T14:57:44;25.67;;;13.10;;
73599;SDS011;61877;48.246;9.220;2023-03-01T15:00:15;25.50;;;12.77;;
73599;SDS011;61877;48.246;9.220;2023-03-01T15:02:48;23.98;;;12.80;;
73599;SDS011;61877;48.246;9.220;2023-03-01T15:05:18;23.13;;;11.98;;
73599;SDS011;61877;48.246;9.220;2023-03-01T15:07:53;24.33;;;12.25;;
73599;SDS011;61877;48.246;9.220;2023-03-01T15:10:34;25.80;;;12.40;;
73599;SDS011;61877;48.246;9.220;2023-03-01T15:16:06;24.65;;;12.52;;
73599;SDS011;61877;48.246;9.220;2023-03-01T15:18:44;23.33;;;12.48;;
73599;SDS011;61877;48.246;9.220;2023-03-01T15:21:15;22.67;;;12.55;;
73599;SDS011;61877;48.246;9.220;2023-03-01T15:23:48;23.60;;;13.27;;
73599;SDS011;61877;48.246;9.220;2023-03-01T15:26:25;22.45;;;12.80;;
73599;SDS011;61877;48.246;9.220;2023-03-01T15:28:54;25.45;;;13.10;;
73599;SDS011;61877;48.246;9.220;2023-03-01T15:31:22;25.17;;;12.88;;
73599;SDS011;61877;48.246;9.220;2023-03-01T15:33:49;25.92;;;13.02;;
73599;SDS011;61877;48.246;9.220;2023-03-01T15:36:30;26.30;;;13.37;;
73599;SDS011;61877;48.246;9.220;2023-03-01T15:42:00;25.95;;;12.48;;
73599;SDS011;61877;48.246;9.220;2023-03-01T15:44:26;25.67;;;12.80;;
73599;SDS011;61877;48.246;9.220;2023-03-01T15:46:53;24.73;;;12.93;;
73599;SDS011;61877;48.246;9.220;2023-03-01T15:49:27;26.87;;;12.83;;
73599;SDS011;61877;48.246;9.220;2023-03-01T15:52:00;23.88;;;11.60;;
73599;SDS011;61877;48.246;9.220;2023-03-01T15:54:25;23.47;;;11.70;;
73599;SDS011;61877;48.246;9.220;2023-03-01T15:56:54;23.43;;;12.20;;
73599;SDS011;61877;48.246;9.220;2023-03-01T15:59:20;25.27;;;12.43;;
73599;SDS011;61877;48.246;9.220;2023-03-01T16:01:45;23.42;;;11.85;;
73599;SDS011;61877;48.246;9.220;2023-03-01T16:04:11;27.40;;;12.50;;
73599;SDS011;61877;48.246;9.220;2023-03-01T16:06:37;24.30;;;12.63;;
73599;SDS011;61877;48.246;9.220;2023-03-01T16:09:05;24.75;;;12.18;;
73599;SDS011;61877;48.246;9.220;2023-03-01T16:11:30;26.53;;;11.97;;
73599;SDS011;61877;48.246;9.220;2023-03-01T16:13:57;25.33;;;12.57;;
73599;SDS011;61877;48.246;9.220;2023-03-01T16:16:23;26.42;;;12.45;;
73599;SDS011;61877;48.246;9.220;2023-03-01T16:18:48;26.20;;;12.50;;